createdAt,value
2024-01-21T05:53:24.807Z,100758.00
2024-01-21T05:55:52.901Z,100755.09
2024-01-21T05:58:20.552Z,100760.91
2024-01-21T06:00:48.337Z,100766.00
2024-01-21T06:03:16.205Z,100738.06
2024-01-21T06:05:43.965Z,100776.38
2024-01-21T06:08:11.894Z,100783.28
2024-01-21T06:10:39.602Z,100774.69
2024-01-21T06:13:07.330Z,100770.28
2024-01-21T06:15:35.255Z,100775.28
2024-01-21T06:18:03.033Z,100772.53
2024-01-21T06:20:30.857Z,100764.63
2024-01-21T06:22:59.152Z,100780.19
2024-01-21T06:25:26.926Z,100770.66
2024-01-21T06:27:54.615Z,100781.00
2024-01-21T06:30:24.376Z,100783.69
2024-01-21T06:32:59.541Z,100757.38
2024-01-21T06:35:31.271Z,100796.66
2024-01-21T06:37:59.392Z,100806.72
2024-01-21T06:40:27.122Z,100811.69
2024-01-21T06:42:54.823Z,100816.56
2024-01-21T06:45:22.784Z,100823.31
2024-01-21T06:47:51.707Z,100829.16
2024-01-21T06:50:20.478Z,100831.69
2024-01-21T06:52:48.353Z,100839.34
2024-01-21T06:55:16.095Z,100847.88
2024-01-21T06:57:43.998Z,100829.09
2024-01-21T07:00:13.035Z,100863.16
2024-01-21T07:02:40.625Z,100865.41
2024-01-21T07:05:09.099Z,100869.41
2024-01-21T07:07:36.892Z,100866.88
2024-01-21T07:10:04.863Z,100866.81
2024-01-21T07:12:32.495Z,100871.03
2024-01-21T07:15:00.368Z,100866.53
2024-01-21T07:17:27.990Z,100862.81
2024-01-21T07:19:55.826Z,100865.25
2024-01-21T07:22:23.475Z,100863.25
2024-01-21T07:24:51.168Z,100805.19
2024-01-21T07:27:18.912Z,100876.41
2024-01-21T07:29:46.714Z,100830.81
2024-01-21T07:32:14.274Z,100876.75
2024-01-21T07:34:42.154Z,100882.53
2024-01-21T07:37:09.917Z,100894.97
2024-01-21T07:39:37.545Z,100901.28
2024-01-21T07:42:05.476Z,100892.94
2024-01-21T07:44:33.206Z,100915.78
2024-01-21T07:47:00.764Z,100903.88
2024-01-21T07:49:28.486Z,100924.78
2024-01-21T07:51:56.263Z,100924.25
2024-01-21T07:54:23.969Z,100906.47
2024-01-21T07:56:51.505Z,100928.31
2024-01-21T07:59:19.321Z,100930.47
2024-01-21T08:01:47.017Z,100932.75
2024-01-21T08:04:15.156Z,100932.38
2024-01-21T08:06:43.310Z,100925.97
2024-01-21T08:09:11.031Z,100927.31
2024-01-21T08:11:38.700Z,100915.75
2024-01-21T08:14:06.678Z,100919.84
2024-01-21T08:16:34.268Z,100923.88
2024-01-21T08:19:15.346Z,100925.25
2024-01-21T08:21:44.128Z,100937.03
2024-01-21T08:24:12.798Z,100938.38
2024-01-21T08:26:41.403Z,100947.44
2024-01-21T08:29:09.174Z,100959.13
2024-01-21T08:31:44.256Z,100965.50
2024-01-21T08:34:12.737Z,100970.66
2024-01-21T08:36:46.122Z,100971.81
2024-01-21T08:39:14.219Z,100973.59
2024-01-21T08:41:42.337Z,100971.81
2024-01-21T08:44:10.269Z,100942.81
2024-01-21T08:46:39.258Z,100969.63
2024-01-21T08:49:07.134Z,100976.16
2024-01-21T08:51:36.044Z,100976.72
2024-01-21T08:54:04.433Z,100969.47
2024-01-21T08:56:33.891Z,100975.16
2024-01-21T08:59:01.866Z,100987.50
2024-01-21T09:01:30.349Z,100995.94
2024-01-21T09:03:59.465Z,100995.38
2024-01-21T09:06:27.358Z,100999.97
2024-01-21T09:08:56.336Z,101001.34
2024-01-21T09:11:24.935Z,100996.72
2024-01-21T09:13:52.699Z,100998.16
2024-01-21T09:16:21.312Z,101003.84
2024-01-21T09:18:53.528Z,101001.72
2024-01-21T09:21:27.448Z,100994.97
2024-01-21T09:24:06.378Z,100996.78
2024-01-21T09:26:36.377Z,101000.47
2024-01-21T09:29:05.024Z,100991.59
2024-01-21T09:31:34.413Z,101008.94
2024-01-21T09:34:02.731Z,101007.69
2024-01-21T09:36:30.758Z,101006.50
2024-01-21T09:38:58.527Z,101000.94
2024-01-21T09:41:51.707Z,101004.16
2024-01-21T09:44:32.317Z,100998.63
2024-01-21T09:47:11.864Z,100967.75
2024-01-21T09:49:43.634Z,101004.97
2024-01-21T09:52:17.158Z,101003.78
2024-01-21T09:55:05.673Z,101006.84
2024-01-21T09:58:00.885Z,101002.28
2024-01-21T10:00:38.536Z,101013.06
2024-01-21T10:06:18.525Z,101013.31
2024-01-21T10:08:59.598Z,101010.31
2024-01-21T10:11:38.517Z,101006.41
2024-01-21T10:14:12.188Z,101007.78
2024-01-21T10:16:51.254Z,101001.31
2024-01-21T10:19:49.010Z,100995.72
2024-01-21T10:22:33.683Z,100991.31
2024-01-21T10:28:12.873Z,100995.56
2024-01-21T10:30:48.162Z,100987.66
2024-01-21T10:36:08.769Z,101004.06
2024-01-21T10:38:53.047Z,101001.69
2024-01-21T10:41:35.380Z,100980.91
2024-01-21T10:44:11.286Z,101004.06
2024-01-21T10:46:46.243Z,101005.59
2024-01-21T10:49:21.721Z,100994.66
2024-01-21T10:51:58.189Z,101013.31
2024-01-21T10:54:40.182Z,101020.03
2024-01-21T10:57:08.841Z,101024.28
2024-01-21T10:59:42.600Z,101020.19
2024-01-21T11:02:14.554Z,101029.75
2024-01-21T11:04:49.645Z,101030.72
2024-01-21T11:07:20.775Z,101004.56
2024-01-21T11:09:51.115Z,101006.19
2024-01-21T11:12:19.958Z,101028.84
2024-01-21T11:14:49.131Z,101034.75
2024-01-21T11:17:21.321Z,101018.34
2024-01-21T11:19:56.785Z,101037.78
2024-01-21T11:22:27.231Z,101037.63
2024-01-21T11:24:57.858Z,101039.31
2024-01-21T11:27:29.406Z,101037.47
2024-01-21T11:29:59.396Z,101039.09
2024-01-21T11:32:30.709Z,101041.59
2024-01-21T11:35:18.024Z,101008.31
2024-01-21T11:37:53.798Z,101018.75
2024-01-21T11:40:21.786Z,101049.88
2024-01-21T11:42:51.820Z,101054.13
2024-01-21T11:45:20.883Z,101058.38
2024-01-21T11:47:48.810Z,101053.06
2024-01-21T11:50:19.470Z,101059.91
2024-01-21T11:52:47.602Z,101057.03
2024-01-21T11:55:22.481Z,101060.31
2024-01-21T11:57:50.368Z,101056.69
2024-01-21T12:00:18.315Z,101053.22
2024-01-21T12:02:47.894Z,101044.72
2024-01-21T12:05:19.832Z,101044.78
2024-01-21T12:07:48.250Z,101036.91
2024-01-21T12:10:16.230Z,101036.91
2024-01-21T12:12:44.025Z,101038.56
2024-01-21T12:15:11.980Z,101034.91
2024-01-21T12:17:39.774Z,101017.25
2024-01-21T12:20:09.110Z,101046.19
2024-01-21T12:22:38.677Z,101063.47
2024-01-21T12:25:09.966Z,101067.16
2024-01-21T12:27:37.921Z,101070.97
2024-01-21T12:30:12.729Z,101075.50
2024-01-21T12:32:52.969Z,101072.94
2024-01-21T12:35:24.314Z,101076.25
2024-01-21T12:37:52.230Z,101084.84
2024-01-21T12:40:20.039Z,101085.53
2024-01-21T12:42:47.997Z,101090.63
2024-01-21T12:45:15.852Z,101081.13
2024-01-21T12:47:43.522Z,101078.75
2024-01-21T12:50:11.728Z,101084.13
2024-01-21T12:52:39.464Z,101074.47
2024-01-21T12:55:08.403Z,101078.13
2024-01-21T12:57:36.050Z,101080.91
2024-01-21T13:00:05.857Z,101088.00
2024-01-21T13:02:33.517Z,101092.69
2024-01-21T13:05:01.200Z,101093.13
2024-01-21T13:07:29.386Z,101098.88
2024-01-21T13:09:58.709Z,101100.22
2024-01-21T13:12:27.196Z,101099.88
2024-01-21T13:14:56.880Z,101102.16
2024-01-21T13:17:25.163Z,101107.00
2024-01-21T13:19:53.246Z,101113.59
2024-01-21T13:22:21.168Z,101111.44
2024-01-21T13:24:49.076Z,101113.63
2024-01-21T13:27:28.728Z,101117.47
2024-01-21T13:30:16.935Z,101118.56
2024-01-21T13:32:44.938Z,101124.78
2024-01-21T13:35:13.135Z,101129.31
2024-01-21T13:37:41.793Z,101126.78
2024-01-21T13:40:10.318Z,101133.78
2024-01-21T13:42:39.187Z,101126.91
2024-01-21T13:45:09.977Z,101113.56
2024-01-21T13:47:38.910Z,101126.59
2024-01-21T13:50:06.934Z,101127.25
2024-01-21T13:52:34.969Z,101143.66
2024-01-21T13:55:06.723Z,101144.31
2024-01-21T13:57:34.563Z,101135.50
2024-01-21T14:00:02.331Z,101145.38
2024-01-21T14:02:32.605Z,101152.00
2024-01-21T14:05:00.850Z,101149.88
2024-01-21T14:07:28.431Z,101160.78
2024-01-21T14:09:58.216Z,101153.63
2024-01-21T14:12:26.251Z,101154.16
2024-01-21T14:14:54.102Z,101156.19
2024-01-21T14:17:26.231Z,101160.81
2024-01-21T14:19:54.712Z,101165.50
2024-01-21T14:22:23.038Z,101165.94
2024-01-21T14:24:52.388Z,101172.38
2024-01-21T14:27:20.610Z,101175.34
2024-01-21T14:29:57.381Z,101186.81
2024-01-21T14:32:26.359Z,101193.09
2024-01-21T14:34:53.975Z,101195.13
2024-01-21T14:37:22.358Z,101200.63
2024-01-21T14:39:51.088Z,101197.69
2024-01-21T14:42:18.905Z,101200.63
2024-01-21T14:44:46.574Z,101198.50
2024-01-21T14:47:14.871Z,101203.41
2024-01-21T14:49:42.569Z,101208.03
2024-01-21T14:52:10.286Z,101203.84
2024-01-21T14:54:38.801Z,101205.59
2024-01-21T14:57:06.695Z,101208.50
2024-01-21T14:59:35.355Z,101217.41
2024-01-21T15:02:03.920Z,101215.06
2024-01-21T15:04:33.732Z,101215.97
2024-01-21T15:07:01.670Z,101228.19
2024-01-21T15:09:29.563Z,101240.31
2024-01-21T15:11:57.284Z,101237.69
2024-01-21T15:14:33.139Z,101248.84
2024-01-21T15:17:00.977Z,101251.31
2024-01-21T15:19:28.658Z,101258.28
2024-01-21T15:21:56.872Z,101257.31
2024-01-21T15:24:24.843Z,101257.28
2024-01-21T15:26:53.291Z,101229.28
2024-01-21T15:29:20.947Z,101254.16
2024-01-21T15:31:48.680Z,101259.28
2024-01-21T15:34:16.365Z,101265.19
2024-01-21T15:36:44.149Z,101280.16
2024-01-21T15:39:12.767Z,101283.66
2024-01-21T15:41:41.412Z,101291.66
2024-01-21T15:44:09.519Z,101288.16
2024-01-21T15:46:37.710Z,101282.16
2024-01-21T15:49:05.395Z,101282.38
2024-01-21T15:51:33.767Z,101287.81
2024-01-21T15:54:01.606Z,101276.94
2024-01-21T15:56:30.931Z,101279.03
2024-01-21T15:59:01.564Z,101281.41
2024-01-21T16:01:29.966Z,101283.28
2024-01-21T16:03:58.884Z,101279.81
2024-01-21T16:06:27.149Z,101273.81
2024-01-21T16:08:55.771Z,101272.19
2024-01-21T16:11:23.809Z,101268.69
2024-01-21T16:13:52.493Z,101271.13
2024-01-21T16:16:20.291Z,101268.41
2024-01-21T16:18:48.112Z,101262.22
2024-01-21T16:21:16.378Z,101261.59
2024-01-21T16:23:44.634Z,101245.72
2024-01-21T16:26:12.700Z,101269.50
2024-01-21T16:28:41.105Z,101265.09
2024-01-21T16:31:09.337Z,101259.91
2024-01-21T16:33:36.974Z,101258.97
2024-01-21T16:36:05.002Z,101264.94
2024-01-21T16:38:32.758Z,101254.56
2024-01-21T16:41:00.420Z,101238.03
2024-01-21T16:43:28.381Z,101247.41
2024-01-21T16:45:56.280Z,101269.78
2024-01-21T16:48:25.380Z,101268.88
2024-01-21T16:50:58.290Z,101260.97
2024-01-21T16:53:30.990Z,101266.03
2024-01-21T16:56:01.193Z,101269.44
2024-01-21T16:58:29.776Z,101284.19
2024-01-21T17:01:01.253Z,101242.41
2024-01-21T17:03:30.126Z,101264.47
2024-01-21T17:05:58.326Z,101279.81
2024-01-21T17:08:26.256Z,101286.56
2024-01-21T17:11:11.890Z,101285.56
2024-01-21T17:13:40.705Z,101102.94
2024-01-21T17:16:09.341Z,101277.56
2024-01-21T17:18:50.920Z,101257.69
2024-01-21T17:21:18.909Z,101271.81
2024-01-21T17:23:46.904Z,101252.88
2024-01-21T17:26:16.201Z,101267.94
2024-01-21T17:28:45.971Z,101272.16
2024-01-21T17:31:13.634Z,101265.94
2024-01-21T17:33:43.348Z,101264.94
2024-01-21T17:36:14.197Z,101259.63
2024-01-21T17:38:42.049Z,101241.91
2024-01-21T17:41:09.857Z,101274.38
2024-01-21T17:43:38.135Z,101282.16
2024-01-21T17:46:09.475Z,101272.13
2024-01-21T17:48:37.447Z,101301.34
2024-01-21T17:51:05.878Z,101296.28
2024-01-21T17:53:35.127Z,101297.22
2024-01-21T17:56:03.093Z,101297.38
2024-01-21T17:58:31.037Z,101294.00
2024-01-21T18:01:00.034Z,101296.75
2024-01-21T18:03:28.012Z,101287.44
2024-01-21T18:05:55.850Z,101291.94
2024-01-21T18:08:23.702Z,101294.81
2024-01-21T18:10:52.948Z,101291.56
2024-01-21T18:13:20.662Z,101289.91
2024-01-21T18:15:48.367Z,101286.56
2024-01-21T18:18:16.172Z,101281.50
